sensor_id;sensor_type;location;lat;lon;timestamp;P1;durP1;ratioP1;P2;durP2;ratioP2
8737;SDS011;4405;49.272;8.590;2022-12-01T00:01:52;19.27;;;14.47;;
8737;SDS011;4405;49.272;8.590;2022-12-01T00:04:19;20.10;;;14.83;;
8737;SDS011;4405;49.272;8.590;2022-12-01T00:06:46;21.53;;;15.50;;
8737;SDS011;4405;49.272;8.590;2022-12-01T00:09:13;21.87;;;16.17;;
8737;SDS011;4405;49.272;8.590;2022-12-01T00:11:57;21.10;;;15.07;;
8737;SDS011;4405;49.272;8.590;2022-12-01T00:14:23;21.57;;;15.07;;
8737;SDS011;4405;49.272;8.590;2022-12-01T00:16:49;22.07;;;15.90;;
8737;SDS011;4405;49.272;8.590;2022-12-01T00:19:16;22.60;;;16.03;;
8737;SDS011;4405;49.272;8.590;2022-12-01T00:21:42;21.57;;;15.27;;
8737;SDS011;4405;49.272;8.590;2022-12-01T00:24:11;21.20;;;15.70;;
8737;SDS011;4405;49.272;8.590;2022-12-01T00:26:38;20.67;;;15.70;;
8737;SDS011;4405;49.272;8.590;2022-12-01T00:29:04;23.23;;;16.07;;
8737;SDS011;4405;49.272;8.590;2022-12-01T00:31:30;20.40;;;15.70;;
8737;SDS011;4405;49.272;8.590;2022-12-01T00:33:57;21.77;;;16.50;;
8737;SDS011;4405;49.272;8.590;2022-12-01T00:36:23;21.10;;;15.50;;
8737;SDS011;4405;49.272;8.590;2022-12-01T00:38:50;27.23;;;16.87;;
8737;SDS011;4405;49.272;8.590;2022-12-01T00:41:18;23.50;;;16.83;;
8737;SDS011;4405;49.272;8.590;2022-12-01T00:43:45;21.63;;;16.37;;
8737;SDS011;4405;49.272;8.590;2022-12-01T00:46:11;22.83;;;16.67;;
8737;SDS011;4405;49.272;8.590;2022-12-01T00:48:38;22.33;;;15.97;;
8737;SDS011;4405;49.272;8.590;2022-12-01T00:51:04;22.33;;;16.20;;
8737;SDS011;4405;49.272;8.590;2022-12-01T00:53:30;23.37;;;16.20;;
8737;SDS011;4405;49.272;8.590;2022-12-01T00:55:57;24.27;;;16.77;;
8737;SDS011;4405;49.272;8.590;2022-12-01T00:58:24;23.60;;;17.10;;
8737;SDS011;4405;49.272;8.590;2022-12-01T01:00:55;22.23;;;16.73;;
8737;SDS011;4405;49.272;8.590;2022-12-01T01:03:22;24.00;;;16.87;;
8737;SDS011;4405;49.272;8.590;2022-12-01T01:05:48;25.87;;;16.80;;
8737;SDS011;4405;49.272;8.590;2022-12-01T01:08:14;24.13;;;16.27;;
8737;SDS011;4405;49.272;8.590;2022-12-01T01:10:41;25.13;;;16.53;;
8737;SDS011;4405;49.272;8.590;2022-12-01T01:13:08;24.63;;;16.87;;
8737;SDS011;4405;49.272;8.590;2022-12-01T01:15:36;26.77;;;17.43;;
8737;SDS011;4405;49.272;8.590;2022-12-01T01:18:02;23.80;;;17.10;;
8737;SDS011;4405;49.272;8.590;2022-12-01T01:20:29;25.60;;;16.23;;
8737;SDS011;4405;49.272;8.590;2022-12-01T01:22:56;25.43;;;17.80;;
8737;SDS011;4405;49.272;8.590;2022-12-01T01:25:22;22.97;;;16.13;;
8737;SDS011;4405;49.272;8.590;2022-12-01T01:27:49;23.53;;;16.37;;
8737;SDS011;4405;49.272;8.590;2022-12-01T01:30:15;22.40;;;15.30;;
8737;SDS011;4405;49.272;8.590;2022-12-01T01:32:43;25.27;;;17.63;;
8737;SDS011;4405;49.272;8.590;2022-12-01T01:35:10;22.80;;;16.23;;
8737;SDS011;4405;49.272;8.590;2022-12-01T01:37:36;27.10;;;16.67;;
8737;SDS011;4405;49.272;8.590;2022-12-01T01:40:03;23.57;;;16.20;;
8737;SDS011;4405;49.272;8.590;2022-12-01T01:42:29;25.33;;;16.50;;
8737;SDS011;4405;49.272;8.590;2022-12-01T01:44:56;24.33;;;16.40;;
8737;SDS011;4405;49.272;8.590;2022-12-01T01:47:23;24.10;;;16.83;;
8737;SDS011;4405;49.272;8.590;2022-12-01T01:49:52;22.83;;;16.40;;
8737;SDS011;4405;49.272;8.590;2022-12-01T01:52:18;23.40;;;16.93;;
8737;SDS011;4405;49.272;8.590;2022-12-01T01:54:46;22.50;;;16.10;;
8737;SDS011;4405;49.272;8.590;2022-12-01T01:57:16;25.33;;;16.93;;
8737;SDS011;4405;49.272;8.590;2022-12-01T01:59:44;23.47;;;16.37;;
8737;SDS011;4405;49.272;8.590;2022-12-01T02:02:12;22.50;;;16.80;;
8737;SDS011;4405;49.272;8.590;2022-12-01T02:04:39;25.50;;;17.07;;
8737;SDS011;4405;49.272;8.590;2022-12-01T02:07:08;24.13;;;16.47;;
8737;SDS011;4405;49.272;8.590;2022-12-01T02:09:34;23.63;;;16.63;;
8737;SDS011;4405;49.272;8.590;2022-12-01T02:12:07;24.87;;;16.60;;
8737;SDS011;4405;49.272;8.590;2022-12-01T02:14:45;23.40;;;16.07;;
8737;SDS011;4405;49.272;8.590;2022-12-01T02:17:20;21.77;;;15.93;;
8737;SDS011;4405;49.272;8.590;2022-12-01T02:22:33;23.97;;;15.97;;
8737;SDS011;4405;49.272;8.590;2022-12-01T02:25:13;23.23;;;15.80;;
8737;SDS011;4405;49.272;8.590;2022-12-01T02:27:57;24.50;;;16.80;;
8737;SDS011;4405;49.272;8.590;2022-12-01T02:30:29;22.80;;;15.97;;
8737;SDS011;4405;49.272;8.590;2022-12-01T02:33:00;22.10;;;15.27;;
8737;SDS011;4405;49.272;8.590;2022-12-01T02:35:31;21.63;;;14.80;;
8737;SDS011;4405;49.272;8.590;2022-12-01T02:38:03;19.27;;;14.10;;
8737;SDS011;4405;49.272;8.590;2022-12-01T02:40:36;23.07;;;15.63;;
8737;SDS011;4405;49.272;8.590;2022-12-01T02:43:05;21.27;;;14.93;;
8737;SDS011;4405;49.272;8.590;2022-12-01T02:45:38;21.07;;;14.87;;
8737;SDS011;4405;49.272;8.590;2022-12-01T02:48:07;20.23;;;14.40;;
8737;SDS011;4405;49.272;8.590;2022-12-01T02:50:35;22.13;;;15.10;;
8737;SDS011;4405;49.272;8.590;2022-12-01T02:53:03;18.73;;;14.37;;
8737;SDS011;4405;49.272;8.590;2022-12-01T02:55:31;23.13;;;15.70;;
8737;SDS011;4405;49.272;8.590;2022-12-01T02:57:57;20.63;;;14.57;;
8737;SDS011;4405;49.272;8.590;2022-12-01T03:00:24;21.47;;;14.43;;
8737;SDS011;4405;49.272;8.590;2022-12-01T03:02:57;18.40;;;13.47;;
8737;SDS011;4405;49.272;8.590;2022-12-01T03:05:27;17.70;;;13.17;;
8737;SDS011;4405;49.272;8.590;2022-12-01T03:07:55;18.17;;;12.87;;
8737;SDS011;4405;49.272;8.590;2022-12-01T03:10:26;18.37;;;13.60;;
8737;SDS011;4405;49.272;8.590;2022-12-01T03:12:58;16.93;;;13.23;;
8737;SDS011;4405;49.272;8.590;2022-12-01T03:15:27;16.13;;;12.27;;
8737;SDS011;4405;49.272;8.590;2022-12-01T03:17:58;16.03;;;11.73;;
8737;SDS011;4405;49.272;8.590;2022-12-01T03:20:29;15.53;;;10.93;;
8737;SDS011;4405;49.272;8.590;2022-12-01T03:22:57;13.07;;;10.87;;
8737;SDS011;4405;49.272;8.590;2022-12-01T03:25:25;14.43;;;10.80;;
8737;SDS011;4405;49.272;8.590;2022-12-01T03:27:53;15.90;;;11.20;;
8737;SDS011;4405;49.272;8.590;2022-12-01T03:30:21;16.03;;;11.80;;
8737;SDS011;4405;49.272;8.590;2022-12-01T03:32:50;15.33;;;11.50;;
8737;SDS011;4405;49.272;8.590;2022-12-01T03:35:19;14.90;;;11.90;;
8737;SDS011;4405;49.272;8.590;2022-12-01T03:37:49;15.03;;;11.17;;
8737;SDS011;4405;49.272;8.590;2022-12-01T03:40:17;15.63;;;11.50;;
8737;SDS011;4405;49.272;8.590;2022-12-01T03:42:46;15.97;;;11.90;;
8737;SDS011;4405;49.272;8.590;2022-12-01T03:45:15;15.83;;;11.13;;
8737;SDS011;4405;49.272;8.590;2022-12-01T03:47:42;13.87;;;11.00;;
8737;SDS011;4405;49.272;8.590;2022-12-01T03:50:09;13.97;;;11.07;;
8737;SDS011;4405;49.272;8.590;2022-12-01T03:52:42;13.30;;;10.60;;
8737;SDS011;4405;49.272;8.590;2022-12-01T03:55:12;12.33;;;10.33;;
8737;SDS011;4405;49.272;8.590;2022-12-01T03:57:41;15.33;;;11.10;;
8737;SDS011;4405;49.272;8.590;2022-12-01T04:00:10;13.67;;;10.10;;
8737;SDS011;4405;49.272;8.590;2022-12-01T04:02:37;13.17;;;10.97;;
8737;SDS011;4405;49.272;8.590;2022-12-01T04:05:04;13.43;;;10.70;;
8737;SDS011;4405;49.272;8.590;2022-12-01T04:07:31;13.43;;;10.57;;
8737;SDS011;4405;49.272;8.590;2022-12-01T04:09:58;13.53;;;11.27;;
8737;SDS011;4405;49.272;8.590;2022-12-01T04:12:25;14.33;;;11.13;;
8737;SDS011;4405;49.272;8.590;2022-12-01T04:14:57;13.23;;;10.47;;
8737;SDS011;4405;49.272;8.590;2022-12-01T04:17:24;14.10;;;10.93;;
8737;SDS011;4405;49.272;8.590;2022-12-01T04:19:50;13.83;;;11.07;;
8737;SDS011;4405;49.272;8.590;2022-12-01T04:22:17;13.23;;;10.60;;
8737;SDS011;4405;49.272;8.590;2022-12-01T04:24:43;13.97;;;10.13;;
8737;SDS011;4405;49.272;8.590;2022-12-01T04:27:11;13.57;;;10.43;;
8737;SDS011;4405;49.272;8.590;2022-12-01T04:29:38;12.57;;;10.03;;
8737;SDS011;4405;49.272;8.590;2022-12-01T04:32:04;12.67;;;10.43;;
8737;SDS011;4405;49.272;8.590;2022-12-01T04:34:30;12.87;;;9.47;;
8737;SDS011;4405;49.272;8.590;2022-12-01T04:36:57;13.50;;;10.17;;
8737;SDS011;4405;49.272;8.590;2022-12-01T04:39:23;13.20;;;10.47;;
8737;SDS011;4405;49.272;8.590;2022-12-01T04:41:49;14.70;;;11.53;;
8737;SDS011;4405;49.272;8.590;2022-12-01T04:44:17;13.43;;;11.27;;
8737;SDS011;4405;49.272;8.590;2022-12-01T04:46:43;13.90;;;10.00;;
8737;SDS011;4405;49.272;8.590;2022-12-01T04:49:10;14.13;;;10.50;;
8737;SDS011;4405;49.272;8.590;2022-12-01T04:51:36;13.57;;;10.97;;
8737;SDS011;4405;49.272;8.590;2022-12-01T04:54:02;14.20;;;10.50;;
8737;SDS011;4405;49.272;8.590;2022-12-01T04:56:29;12.37;;;9.90;;
8737;SDS011;4405;49.272;8.590;2022-12-01T04:58:56;16.20;;;10.47;;
8737;SDS011;4405;49.272;8.590;2022-12-01T05:01:24;14.13;;;10.67;;
8737;SDS011;4405;49.272;8.590;2022-12-01T05:03:50;14.30;;;10.87;;
8737;SDS011;4405;49.272;8.590;2022-12-01T05:06:18;14.13;;;10.90;;
8737;SDS011;4405;49.272;8.590;2022-12-01T05:08:44;14.63;;;10.77;;
8737;SDS011;4405;49.272;8.590;2022-12-01T05:11:11;14.30;;;10.63;;
8737;SDS011;4405;49.272;8.590;2022-12-01T05:13:38;14.83;;;10.93;;
8737;SDS011;4405;49.272;8.590;2022-12-01T05:16:05;14.03;;;10.40;;
8737;SDS011;4405;49.272;8.590;2022-12-01T05:18:33;13.40;;;10.47;;
8737;SDS011;4405;49.272;8.590;2022-12-01T05:21:00;12.70;;;10.57;;
8737;SDS011;4405;49.272;8.590;2022-12-01T05:23:28;12.60;;;10.20;;
8737;SDS011;4405;49.272;8.590;2022-12-01T05:25:54;13.30;;;10.73;;
8737;SDS011;4405;49.272;8.590;2022-12-01T05:28:21;13.87;;;10.63;;
8737;SDS011;4405;49.272;8.590;2022-12-01T05:30:48;11.63;;;9.90;;
8737;SDS011;4405;49.272;8.590;2022-12-01T05:33:15;12.10;;;10.00;;
8737;SDS011;4405;49.272;8.590;2022-12-01T05:35:43;13.70;;;10.73;;
8737;SDS011;4405;49.272;8.590;2022-12-01T05:38:09;14.93;;;10.73;;
8737;SDS011;4405;49.272;8.590;2022-12-01T05:40:35;14.80;;;10.33;;
8737;SDS011;4405;49.272;8.590;2022-12-01T05:43:02;12.83;;;9.73;;
8737;SDS011;4405;49.272;8.590;2022-12-01T05:45:28;11.87;;;9.90;;
8737;SDS011;4405;49.272;8.590;2022-12-01T05:47:55;12.03;;;9.50;;
8737;SDS011;4405;49.272;8.590;2022-12-01T05:50:21;11.40;;;9.67;;
8737;SDS011;4405;49.272;8.590;2022-12-01T05:52:49;14.10;;;9.87;;
8737;SDS011;4405;49.272;8.590;2022-12-01T05:55:15;12.97;;;9.63;;
8737;SDS011;4405;49.272;8.590;2022-12-01T05:57:42;15.13;;;10.97;;
8737;SDS011;4405;49.272;8.590;2022-12-01T06:00:09;16.33;;;11.57;;
8737;SDS011;4405;49.272;8.590;2022-12-01T06:02:35;17.33;;;12.20;;
8737;SDS011;4405;49.272;8.590;2022-12-01T06:05:01;15.87;;;11.93;;
8737;SDS011;4405;49.272;8.590;2022-12-01T06:07:28;11.53;;;9.67;;
8737;SDS011;4405;49.272;8.590;2022-12-01T06:09:56;9.43;;;8.43;;
8737;SDS011;4405;49.272;8.590;2022-12-01T06:12:22;12.47;;;9.40;;
8737;SDS011;4405;49.272;8.590;2022-12-01T06:14:48;12.03;;;10.00;;
8737;SDS011;4405;49.272;8.590;2022-12-01T06:17:15;15.00;;;11.43;;
8737;SDS011;4405;49.272;8.590;2022-12-01T06:19:41;11.93;;;10.23;;
8737;SDS011;4405;49.272;8.590;2022-12-01T06:22:08;14.67;;;11.00;;
8737;SDS011;4405;49.272;8.590;2022-12-01T06:24:34;11.10;;;9.50;;
8737;SDS011;4405;49.272;8.590;2022-12-01T06:27:02;13.13;;;10.30;;
8737;SDS011;4405;49.272;8.590;2022-12-01T06:29:28;10.90;;;9.40;;
8737;SDS011;4405;49.272;8.590;2022-12-01T06:31:55;12.57;;;9.33;;
8737;SDS011;4405;49.272;8.590;2022-12-01T06:34:21;11.30;;;9.57;;
8737;SDS011;4405;49.272;8.590;2022-12-01T06:36:47;13.97;;;9.53;;
8737;SDS011;4405;49.272;8.590;2022-12-01T06:39:14;12.30;;;10.27;;
8737;SDS011;4405;49.272;8.590;2022-12-01T06:41:40;11.63;;;9.47;;
8737;SDS011;4405;49.272;8.590;2022-12-01T06:44:08;12.50;;;9.70;;
8737;SDS011;4405;49.272;8.590;2022-12-01T06:46:35;13.40;;;10.00;;
8737;SDS011;4405;49.272;8.590;2022-12-01T06:49:01;12.13;;;9.37;;
8737;SDS011;4405;49.272;8.590;2022-12-01T06:51:28;14.23;;;10.17;;
8737;SDS011;4405;49.272;8.590;2022-12-01T06:53:57;12.13;;;9.93;;
8737;SDS011;4405;49.272;8.590;2022-12-01T06:56:23;12.13;;;8.97;;
8737;SDS011;4405;49.272;8.590;2022-12-01T06:58:50;12.33;;;9.67;;
8737;SDS011;4405;49.272;8.590;2022-12-01T07:01:18;14.33;;;10.57;;
8737;SDS011;4405;49.272;8.590;2022-12-01T07:03:46;13.57;;;10.30;;
8737;SDS011;4405;49.272;8.590;2022-12-01T07:06:12;14.80;;;10.27;;
8737;SDS011;4405;49.272;8.590;2022-12-01T07:08:38;14.70;;;11.07;;
8737;SDS011;4405;49.272;8.590;2022-12-01T07:11:06;11.60;;;9.50;;
8737;SDS011;4405;49.272;8.590;2022-12-01T07:13:32;13.47;;;10.10;;
8737;SDS011;4405;49.272;8.590;2022-12-01T07:15:59;11.37;;;9.90;;
8737;SDS011;4405;49.272;8.590;2022-12-01T07:18:27;12.47;;;9.93;;
8737;SDS011;4405;49.272;8.590;2022-12-01T07:20:57;11.87;;;9.87;;
8737;SDS011;4405;49.272;8.590;2022-12-01T07:23:23;13.60;;;10.27;;
8737;SDS011;4405;49.272;8.590;2022-12-01T07:25:56;15.27;;;10.60;;
8737;SDS011;4405;49.272;8.590;2022-12-01T07:28:22;16.37;;;10.33;;
8737;SDS011;4405;49.272;8.590;2022-12-01T07:30:49;15.67;;;10.77;;
8737;SDS011;4405;49.272;8.590;2022-12-01T07:33:15;18.13;;;13.27;;
8737;SDS011;4405;49.272;8.590;2022-12-01T07:35:43;16.33;;;11.17;;
8737;SDS011;4405;49.272;8.590;2022-12-01T07:38:09;14.93;;;10.47;;
8737;SDS011;4405;49.272;8.590;2022-12-01T07:40:36;14.33;;;10.37;;
8737;SDS011;4405;49.272;8.590;2022-12-01T07:43:02;16.97;;;10.27;;
8737;SDS011;4405;49.272;8.590;2022-12-01T07:45:29;13.57;;;10.20;;
8737;SDS011;4405;49.272;8.590;2022-12-01T07:47:55;13.60;;;9.67;;
8737;SDS011;4405;49.272;8.590;2022-12-01T07:50:21;13.10;;;10.37;;
8737;SDS011;4405;49.272;8.590;2022-12-01T07:52:49;13.13;;;10.47;;
8737;SDS011;4405;49.272;8.590;2022-12-01T07:55:16;15.07;;;10.77;;
8737;SDS011;4405;49.272;8.590;2022-12-01T07:57:42;11.63;;;10.00;;
8737;SDS011;4405;49.272;8.590;2022-12-01T08:00:09;12.77;;;9.97;;
8737;SDS011;4405;49.272;8.590;2022-12-01T08:02:35;11.87;;;10.57;;
8737;SDS011;4405;49.272;8.590;2022-12-01T08:05:02;13.37;;;10.73;;
8737;SDS011;4405;49.272;8.590;2022-12-01T08:07:28;13.17;;;10.60;;
8737;SDS011;4405;49.272;8.590;2022-12-01T08:09:56;15.53;;;10.80;;
8737;SDS011;4405;49.272;8.590;2022-12-01T08:12:22;16.97;;;12.97;;
8737;SDS011;4405;49.272;8.590;2022-12-01T08:14:48;30.27;;;21.93;;
8737;SDS011;4405;49.272;8.590;2022-12-01T08:17:15;26.00;;;20.27;;
8737;SDS011;4405;49.272;8.590;2022-12-01T08:19:41;68.90;;;39.07;;
8737;SDS011;4405;49.272;8.590;2022-12-01T08:22:07;67.30;;;38.60;;
8737;SDS011;4405;49.272;8.590;2022-12-01T08:24:34;68.77;;;37.57;;
8737;SDS011;4405;49.272;8.590;2022-12-01T08:27:01;63.87;;;38.73;;
8737;SDS011;4405;49.272;8.590;2022-12-01T08:29:28;31.77;;;20.43;;
8737;SDS011;4405;49.272;8.590;2022-12-01T08:31:55;15.30;;;12.10;;
8737;SDS011;4405;49.272;8.590;2022-12-01T08:34:22;15.07;;;11.47;;
8737;SDS011;4405;49.272;8.590;2022-12-01T08:36:48;15.63;;;11.50;;
8737;SDS011;4405;49.272;8.590;2022-12-01T08:39:15;15.70;;;12.23;;
8737;SDS011;4405;49.272;8.590;2022-12-01T08:41:41;16.07;;;11.90;;
8737;SDS011;4405;49.272;8.590;2022-12-01T08:44:09;15.67;;;11.40;;
8737;SDS011;4405;49.272;8.590;2022-12-01T08:46:36;15.20;;;11.63;;
8737;SDS011;4405;49.272;8.590;2022-12-01T08:49:03;15.93;;;10.93;;
8737;SDS011;4405;49.272;8.590;2022-12-01T08:51:30;15.67;;;11.40;;
8737;SDS011;4405;49.272;8.590;2022-12-01T08:53:56;15.13;;;11.27;;
8737;SDS011;4405;49.272;8.590;2022-12-01T08:56:24;15.93;;;11.57;;
8737;SDS011;4405;49.272;8.590;2022-12-01T08:58:50;14.97;;;11.20;;
8737;SDS011;4405;49.272;8.590;2022-12-01T09:01:18;17.13;;;12.23;;
8737;SDS011;4405;49.272;8.590;2022-12-01T09:03:45;15.63;;;11.87;;
8737;SDS011;4405;49.272;8.590;2022-12-01T09:06:12;17.27;;;12.60;;
8737;SDS011;4405;49.272;8.590;2022-12-01T09:08:39;15.60;;;11.70;;
8737;SDS011;4405;49.272;8.590;2022-12-01T09:11:06;17.10;;;13.77;;
8737;SDS011;4405;49.272;8.590;2022-12-01T09:13:33;17.03;;;13.17;;
8737;SDS011;4405;49.272;8.590;2022-12-01T09:16:00;18.63;;;13.40;;
8737;SDS011;4405;49.272;8.590;2022-12-01T09:18:28;16.77;;;11.57;;
8737;SDS011;4405;49.272;8.590;2022-12-01T09:20:55;16.67;;;12.20;;
8737;SDS011;4405;49.272;8.590;2022-12-01T09:23:22;17.57;;;12.13;;
8737;SDS011;4405;49.272;8.590;2022-12-01T09:25:48;14.07;;;11.40;;
8737;SDS011;4405;49.272;8.590;2022-12-01T09:28:15;15.37;;;11.80;;
8737;SDS011;4405;49.272;8.590;2022-12-01T09:30:43;15.13;;;12.13;;
8737;SDS011;4405;49.272;8.590;2022-12-01T09:33:09;13.53;;;10.40;;
8737;SDS011;4405;49.272;8.590;2022-12-01T09:35:37;15.77;;;11.13;;
8737;SDS011;4405;49.272;8.590;2022-12-01T09:38:03;13.97;;;10.70;;
8737;SDS011;4405;49.272;8.590;2022-12-01T09:40:31;12.53;;;10.37;;
8737;SDS011;4405;49.272;8.590;2022-12-01T09:43:00;12.90;;;10.17;;
8737;SDS011;4405;49.272;8.590;2022-12-01T09:45:29;14.03;;;10.23;;
8737;SDS011;4405;49.272;8.590;2022-12-01T09:47:57;14.57;;;11.03;;
8737;SDS011;4405;49.272;8.590;2022-12-01T09:50:24;14.63;;;10.57;;
8737;SDS011;4405;49.272;8.590;2022-12-01T09:52:57;16.73;;;11.90;;
8737;SDS011;4405;49.272;8.590;2022-12-01T09:55:25;14.97;;;11.20;;
8737;SDS011;4405;49.272;8.590;2022-12-01T09:57:54;15.50;;;11.73;;
8737;SDS011;4405;49.272;8.590;2022-12-01T10:00:22;15.57;;;11.20;;
8737;SDS011;4405;49.272;8.590;2022-12-01T10:02:50;14.63;;;10.87;;
8737;SDS011;4405;49.272;8.590;2022-12-01T10:05:19;14.87;;;11.17;;
8737;SDS011;4405;49.272;8.590;2022-12-01T10:07:46;15.37;;;11.10;;
8737;SDS011;4405;49.272;8.590;2022-12-01T10:10:17;13.67;;;10.60;;
8737;SDS011;4405;49.272;8.590;2022-12-01T10:12:45;15.30;;;10.70;;
8737;SDS011;4405;49.272;8.590;2022-12-01T10:15:13;14.57;;;11.10;;
8737;SDS011;4405;49.272;8.590;2022-12-01T10:17:41;17.13;;;11.33;;
8737;SDS011;4405;49.272;8.590;2022-12-01T10:20:11;14.07;;;10.47;;
8737;SDS011;4405;49.272;8.590;2022-12-01T10:25:37;14.00;;;10.73;;
8737;SDS011;4405;49.272;8.590;2022-12-01T10:28:09;14.73;;;10.90;;
8737;SDS011;4405;49.272;8.590;2022-12-01T10:30:46;16.73;;;11.53;;
8737;SDS011;4405;49.272;8.590;2022-12-01T10:33:16;14.37;;;10.97;;
8737;SDS011;4405;49.272;8.590;2022-12-01T10:35:44;16.40;;;10.80;;
8737;SDS011;4405;49.272;8.590;2022-12-01T10:38:13;15.67;;;11.33;;
8737;SDS011;4405;49.272;8.590;2022-12-01T10:40:41;19.10;;;11.73;;
8737;SDS011;4405;49.272;8.590;2022-12-01T10:43:08;13.37;;;10.70;;
8737;SDS011;4405;49.272;8.590;2022-12-01T10:45:36;13.37;;;11.30;;
8737;SDS011;4405;49.272;8.590;2022-12-01T10:48:12;14.33;;;10.70;;
8737;SDS011;4405;49.272;8.590;2022-12-01T10:50:40;13.10;;;10.87;;
8737;SDS011;4405;49.272;8.590;2022-12-01T10:53:08;13.40;;;10.70;;
8737;SDS011;4405;49.272;8.590;2022-12-01T10:55:56;12.27;;;9.93;;
8737;SDS011;4405;49.272;8.590;2022-12-01T10:58:23;13.90;;;11.13;;
8737;SDS011;4405;49.272;8.590;2022-12-01T11:03:21;11.93;;;10.40;;
8737;SDS011;4405;49.272;8.590;2022-12-01T11:05:49;13.43;;;11.03;;
8737;SDS011;4405;49.272;8.590;2022-12-01T11:08:20;16.73;;;10.80;;
8737;SDS011;4405;49.272;8.590;2022-12-01T11:10:46;12.43;;;10.67;;
8737;SDS011;4405;49.272;8.590;2022-12-01T11:13:20;13.50;;;10.13;;
8737;SDS011;4405;49.272;8.590;2022-12-01T11:15:49;16.47;;;11.10;;
8737;SDS011;4405;49.272;8.590;2022-12-01T11:18:19;13.63;;;10.87;;
8737;SDS011;4405;49.272;8.590;2022-12-01T11:20:45;14.00;;;11.07;;
8737;SDS011;4405;49.272;8.590;2022-12-01T11:23:23;12.37;;;10.47;;
8737;SDS011;4405;49.272;8.590;2022-12-01T11:25:57;13.53;;;10.40;;
8737;SDS011;4405;49.272;8.590;2022-12-01T11:28:25;13.33;;;9.83;;
8737;SDS011;4405;49.272;8.590;2022-12-01T11:30:54;12.73;;;10.33;;
8737;SDS011;4405;49.272;8.590;2022-12-01T11:33:20;14.73;;;10.63;;
8737;SDS011;4405;49.272;8.590;2022-12-01T11:35:47;14.87;;;10.93;;
8737;SDS011;4405;49.272;8.590;2022-12-01T11:38:21;15.50;;;11.93;;
8737;SDS011;4405;49.272;8.590;2022-12-01T11:40:48;13.00;;;10.37;;
8737;SDS011;4405;49.272;8.590;2022-12-01T11:43:20;12.87;;;10.07;;
8737;SDS011;4405;49.272;8.590;2022-12-01T11:45:49;12.37;;;10.53;;
8737;SDS011;4405;49.272;8.590;2022-12-01T11:48:21;14.30;;;10.47;;
8737;SDS011;4405;49.272;8.590;2022-12-01T11:50:58;13.90;;;10.23;;
8737;SDS011;4405;49.272;8.590;2022-12-01T11:53:25;13.17;;;10.90;;
8737;SDS011;4405;49.272;8.590;2022-12-01T11:55:53;12.60;;;9.93;;
8737;SDS011;4405;49.272;8.590;2022-12-01T11:58:38;12.73;;;9.43;;
8737;SDS011;4405;49.272;8.590;2022-12-01T12:01:08;11.23;;;9.83;;
8737;SDS011;4405;49.272;8.590;2022-12-01T12:03:38;11.60;;;10.07;;
8737;SDS011;4405;49.272;8.590;2022-12-01T12:06:11;14.77;;;10.80;;
8737;SDS011;4405;49.272;8.590;2022-12-01T12:08:44;15.37;;;10.80;;
8737;SDS011;4405;49.272;8.590;2022-12-01T12:11:14;12.40;;;10.07;;
8737;SDS011;4405;49.272;8.590;2022-12-01T12:13:57;12.37;;;10.30;;
8737;SDS011;4405;49.272;8.590;2022-12-01T12:16:29;12.23;;;9.53;;
8737;SDS011;4405;49.272;8.590;2022-12-01T12:19:03;13.50;;;10.27;;
8737;SDS011;4405;49.272;8.590;2022-12-01T12:21:36;11.20;;;9.53;;
8737;SDS011;4405;49.272;8.590;2022-12-01T12:24:17;12.43;;;10.07;;
8737;SDS011;4405;49.272;8.590;2022-12-01T12:26:49;13.47;;;11.07;;
8737;SDS011;4405;49.272;8.590;2022-12-01T12:29:20;13.50;;;10.13;;
8737;SDS011;4405;49.272;8.590;2022-12-01T12:31:53;13.87;;;10.20;;
8737;SDS011;4405;49.272;8.590;2022-12-01T12:34:28;15.70;;;10.77;;
8737;SDS011;4405;49.272;8.590;2022-12-01T12:37:00;12.40;;;10.40;;
8737;SDS011;4405;49.272;8.590;2022-12-01T12:39:44;12.60;;;9.63;;
8737;SDS011;4405;49.272;8.590;2022-12-01T12:42:17;10.67;;;9.27;;
8737;SDS011;4405;49.272;8.590;2022-12-01T12:44:48;11.47;;;9.60;;
8737;SDS011;4405;49.272;8.590;2022-12-01T12:50:05;10.73;;;9.40;;
8737;SDS011;4405;49.272;8.590;2022-12-01T12:52:35;12.13;;;9.57;;
8737;SDS011;4405;49.272;8.590;2022-12-01T12:55:09;11.50;;;10.17;;
8737;SDS011;4405;49.272;8.590;2022-12-01T12:57:37;10.17;;;9.10;;
8737;SDS011;4405;49.272;8.590;2022-12-01T13:00:06;14.10;;;10.67;;
8737;SDS011;4405;49.272;8.590;2022-12-01T13:02:36;13.10;;;10.60;;
8737;SDS011;4405;49.272;8.590;2022-12-01T13:05:05;13.57;;;11.43;;
8737;SDS011;4405;49.272;8.590;2022-12-01T13:07:36;13.00;;;11.57;;
8737;SDS011;4405;49.272;8.590;2022-12-01T13:10:07;12.97;;;10.60;;
8737;SDS011;4405;49.272;8.590;2022-12-01T13:12:34;13.97;;;10.53;;
8737;SDS011;4405;49.272;8.590;2022-12-01T13:15:04;14.93;;;11.47;;
8737;SDS011;4405;49.272;8.590;2022-12-01T13:17:32;13.73;;;10.90;;
8737;SDS011;4405;49.272;8.590;2022-12-01T13:20:00;16.07;;;11.53;;
8737;SDS011;4405;49.272;8.590;2022-12-01T13:22:30;13.83;;;10.83;;
8737;SDS011;4405;49.272;8.590;2022-12-01T13:24:57;12.13;;;10.50;;
8737;SDS011;4405;49.272;8.590;2022-12-01T13:27:24;13.53;;;10.57;;
8737;SDS011;4405;49.272;8.590;2022-12-01T13:29:52;13.90;;;10.57;;
8737;SDS011;4405;49.272;8.590;2022-12-01T13:32:26;12.33;;;10.47;;
8737;SDS011;4405;49.272;8.590;2022-12-01T13:34:54;12.50;;;10.23;;
8737;SDS011;4405;49.272;8.590;2022-12-01T13:37:24;17.37;;;11.40;;
8737;SDS011;4405;49.272;8.590;2022-12-01T13:39:53;13.10;;;10.53;;
8737;SDS011;4405;49.272;8.590;2022-12-01T13:42:20;13.23;;;11.07;;
8737;SDS011;4405;49.272;8.590;2022-12-01T13:44:49;14.67;;;11.10;;
8737;SDS011;4405;49.272;8.590;2022-12-01T13:47:30;15.53;;;11.93;;
8737;SDS011;4405;49.272;8.590;2022-12-01T13:49:56;13.83;;;11.63;;
8737;SDS011;4405;49.272;8.590;2022-12-01T13:52:47;12.87;;;10.20;;
8737;SDS011;4405;49.272;8.590;2022-12-01T13:55:25;13.23;;;10.60;;
8737;SDS011;4405;49.272;8.590;2022-12-01T14:00:38;13.77;;;11.00;;
8737;SDS011;4405;49.272;8.590;2022-12-01T14:05:53;14.70;;;11.20;;
8737;SDS011;4405;49.272;8.590;2022-12-01T14:08:21;15.77;;;11.00;;
8737;SDS011;4405;49.272;8.590;2022-12-01T14:10:53;14.73;;;10.83;;
8737;SDS011;4405;49.272;8.590;2022-12-01T14:13:20;17.73;;;12.10;;
8737;SDS011;4405;49.272;8.590;2022-12-01T14:15:51;14.13;;;10.93;;
8737;SDS011;4405;49.272;8.590;2022-12-01T14:18:26;13.67;;;11.00;;
8737;SDS011;4405;49.272;8.590;2022-12-01T14:20:54;16.17;;;10.60;;
8737;SDS011;4405;49.272;8.590;2022-12-01T14:23:23;14.80;;;11.50;;
8737;SDS011;4405;49.272;8.590;2022-12-01T14:26:13;15.77;;;12.47;;
8737;SDS011;4405;49.272;8.590;2022-12-01T14:34:08;14.17;;;11.00;;
8737;SDS011;4405;49.272;8.590;2022-12-01T14:36:36;14.13;;;11.47;;
8737;SDS011;4405;49.272;8.590;2022-12-01T14:39:07;16.07;;;12.13;;
8737;SDS011;4405;49.272;8.590;2022-12-01T14:41:39;14.13;;;11.40;;
8737;SDS011;4405;49.272;8.590;2022-12-01T14:44:11;15.23;;;11.50;;
8737;SDS011;4405;49.272;8.590;2022-12-01T14:46:39;15.20;;;10.87;;
8737;SDS011;4405;49.272;8.590;2022-12-01T14:49:08;13.73;;;11.03;;
8737;SDS011;4405;49.272;8.590;2022-12-01T14:51:36;17.20;;;10.87;;
8737;SDS011;4405;49.272;8.590;2022-12-01T14:54:07;15.23;;;11.43;;
8737;SDS011;4405;49.272;8.590;2022-12-01T14:56:34;17.20;;;11.27;;
8737;SDS011;4405;49.272;8.590;2022-12-01T14:59:13;15.30;;;11.80;;
8737;SDS011;4405;49.272;8.590;2022-12-01T15:01:39;16.50;;;11.43;;
8737;SDS011;4405;49.272;8.590;2022-12-01T15:04:06;15.77;;;11.23;;
8737;SDS011;4405;49.272;8.590;2022-12-01T15:06:33;16.83;;;11.23;;
8737;SDS011;4405;49.272;8.590;2022-12-01T15:09:04;14.43;;;11.30;;
8737;SDS011;4405;49.272;8.590;2022-12-01T15:11:30;15.03;;;11.27;;
8737;SDS011;4405;49.272;8.590;2022-12-01T15:13:57;16.20;;;11.30;;
8737;SDS011;4405;49.272;8.590;2022-12-01T15:16:27;13.43;;;10.70;;
8737;SDS011;4405;49.272;8.590;2022-12-01T15:18:54;14.23;;;10.90;;
8737;SDS011;4405;49.272;8.590;2022-12-01T15:21:21;14.00;;;10.90;;